| Date | Time | Temp. (oF) | Dew Point (oF) | Rel. Hum. (%) | Press. (in.) | Wind Dir. | Wind Speed (mph) | Hourly Rainfall (in.) |
|
|---|---|---|---|---|---|---|---|---|---|
| 1 | 12/01 | 00:00 | 40 | 33 | 77 | 29.87 | NW | 7 | 0.00 |
| 2 | 11/30 | 23:00 | 41 | 34 | 76 | 29.85 | NNW | 4 | 0.00 |
| 3 | 11/30 | 22:00 | 42 | 32 | 69 | 29.83 | NNW | 7 | 0.00 |
| 4 | 11/30 | 21:00 | 43 | 37 | 81 | 29.80 | N | 4 | 0.00 |
| 5 | 11/30 | 20:00 | 43 | 38 | 83 | 29.78 | NW | 1 | 0.00 |
| 6 | 11/30 | 19:00 | 43 | 37 | 81 | 29.76 | N | 4 | 0.00 |
| 7 | 11/30 | 18:00 | 44 | 38 | 80 | 29.75 | N | 4 | 0.00 |
| 8 | 11/30 | 17:00 | 45 | 42 | 92 | 29.73 | N | 5 | 0.00 |
| 9 | 11/30 | 16:00 | 46 | 43 | 91 | 29.71 | NNW | 7 | 0.01 |
| 10 | 11/30 | 15:00 | 46 | 44 | 93 | 29.67 | NNW | 3 | 0.01 |
| 11 | 11/30 | 14:00 | 47 | 45 | 94 | 29.65 | NW | 7 | 0.01 |
| 12 | 11/30 | 13:00 | 48 | 46 | 94 | 29.66 | NW | 2 | 0.04 |
| 13 | 11/30 | 12:00 | 50 | 46 | 88 | 29.65 | W | 10 | 0.08 |
| 14 | 11/30 | 11:00 | 53 | 47 | 81 | 29.66 | WSW | 9 | 0.00 |
| 15 | miss | miss | miss | miss | miss | miss | miss | miss | |
| 16 | 11/30 | 10:00 | 55 | 44 | 67 | 29.65 | SW | 3 | 0.00 |
| 17 | 11/30 | 09:59 | 55 | 43 | 66 | 29.65 | W | 4 | 0.00 |
| 18 | 11/30 | 09:58 | 55 | 43 | 66 | 29.65 | W | 2 | 0.00 |
| 19 | 11/30 | 09:57 | 55 | 43 | 66 | 29.65 | WSW | 4 | 0.00 |
| 20 | 11/30 | 09:56 | 55 | 43 | 66 | 29.65 | WSW | 4 | 0.00 |
| 21 | 11/30 | 09:55 | 55 | 43 | 66 | 29.65 | W | 3 | 0.00 |
| 22 | miss | miss | miss | miss | miss | miss | miss | miss | |
| 23 | 11/30 | 09:53 | 55 | 43 | 66 | 29.65 | SSW | 5 | 0.00 |
| 24 | miss | miss | miss | miss | miss | miss | miss | miss | |
| 25 | 11/30 | 09:51 | 55 | 44 | 67 | 29.65 | SW | 3 | 0.00 |
| 26 | miss | miss | miss | miss | miss | miss | miss | miss | |
| 27 | 11/30 | 09:51 | 55 | 44 | 67 | 29.65 | SW | 3 | 0.00 |
| 28 | miss | miss | miss | miss | miss | miss | miss | miss | |
| 29 | 11/30 | 09:51 | 55 | 44 | 67 | 29.65 | SW | 3 | 0.00 |
| 30 | miss | miss | miss | miss | miss | miss | miss | miss | |
| 31 | 11/30 | 09:51 | 55 | 44 | 67 | 29.65 | SW | 3 | 0.00 |
| 32 | miss | miss | miss | miss | miss | miss | miss | miss | |
| 33 | 11/30 | 09:51 | 55 | 44 | 67 | 29.65 | SW | 3 | 0.00 |
| 34 | miss | miss | miss | miss | miss | miss | miss | miss | |
| 35 | 11/30 | 09:51 | 55 | 44 | 67 | 29.65 | SW | 3 | 0.00 |
| 36 | miss | miss | miss | miss | miss | miss | miss | miss | |
| 37 | 11/30 | 09:51 | 55 | 44 | 67 | 29.65 | SW | 3 | 0.00 |
| 38 | miss | miss | miss | miss | miss | miss | miss | miss | |
| 39 | 11/30 | 09:51 | 55 | 44 | 67 | 29.65 | SW | 3 | 0.00 |
| 40 | 11/30 | 09:00 | 54 | 42 | 64 | 29.66 | SW | 3 | 0.00 |
| 41 | 11/30 | 08:00 | 51 | 40 | 68 | 29.66 | SW | 4 | 0.00 |
| 42 | 11/30 | 07:00 | 51 | 39 | 65 | 29.66 | WSW | 3 | 0.00 |
| 43 | 11/30 | 06:00 | 52 | 40 | 64 | 29.65 | SW | 3 | 0.00 |
| 44 | 11/30 | 05:00 | 52 | 39 | 63 | 29.67 | WSW | 2 | 0.00 |
| 45 | 11/30 | 04:00 | 51 | 39 | 65 | 29.68 | SW | 3 | 0.00 |
| 46 | 11/30 | 03:00 | 54 | 39 | 59 | 29.69 | WSW | 2 | 0.00 |
| 47 | 11/30 | 02:00 | 55 | 40 | 58 | 29.70 | SW | 3 | 0.00 |
| 48 | 11/30 | 01:00 | 52 | 40 | 65 | 29.69 | W | 0 | 0.00 |
| 49 | 11/30 | 00:00 | 53 | 41 | 65 | 29.71 | SSW | 4 | -0.16 |
| 50 | 11/29 | 23:00 | 54 | 42 | 64 | 29.73 | WSW | 1 | 0.00 |
| 51 | 11/29 | 22:00 | 56 | 42 | 60 | 29.73 | SSW | 3 | 0.00 |
| 52 | 11/29 | 21:00 | 56 | 41 | 59 | 29.75 | WSW | 5 | 0.00 |
| 53 | 11/29 | 20:00 | 55 | 41 | 60 | 29.77 | SW | 4 | 0.00 |
| 54 | 11/29 | 19:00 | 55 | 40 | 58 | 29.78 | SW | 4 | 0.00 |
| 55 | 11/29 | 18:00 | 56 | 39 | 54 | 29.78 | SSW | 3 | 0.00 |
| 56 | 11/29 | 17:00 | 59 | 39 | 49 | 29.79 | S | 8 | 0.00 |
| 57 | 11/29 | 16:00 | 64 | 40 | 42 | 29.79 | SSW | 6 | 0.00 |
| 58 | 11/29 | 15:00 | 67 | 39 | 37 | 29.79 | SW | 6 | 0.00 |
| 59 | 11/29 | 14:00 | 67 | 41 | 40 | 29.81 | WSW | 5 | 0.00 |
| 60 | 11/29 | 13:00 | 65 | 44 | 48 | 29.84 | W | 5 | 0.00 |
| 61 | 11/29 | 12:00 | 61 | 43 | 52 | 29.88 | WSW | 0 | 0.00 |
| 62 | 11/29 | 11:00 | 52 | 39 | 63 | 29.92 | S | 3 | 0.00 |
| 63 | 11/29 | 10:00 | 44 | 37 | 79 | 29.94 | SSE | 1 | 0.00 |
| 64 | 11/29 | 09:00 | 38 | 35 | 90 | 29.95 | S | 0 | 0.00 |
| 65 | 11/29 | 08:00 | 31 | 31 | 100 | 29.95 | NW | 0 | 0.00 |
| 66 | 11/29 | 07:00 | 29 | 28 | 99 | 29.94 | NW | 0 | 0.00 |
| 67 | 11/29 | 06:00 | 29 | 28 | 98 | 29.93 | NW | 0 | 0.00 |
| 68 | 11/29 | 05:00 | 29 | 28 | 97 | 29.93 | NW | 0 | 0.00 |
| 69 | 11/29 | 04:00 | 30 | 29 | 96 | 29.92 | NW | 0 | 0.00 |
| 70 | 11/29 | 03:00 | 31 | 29 | 95 | 29.93 | WSW | 0 | 0.00 |
| 71 | 11/29 | 02:00 | 31 | 29 | 93 | 29.93 | WSW | 0 | 0.00 |
| 72 | 11/29 | 01:00 | 31 | 29 | 94 | 29.93 | WSW | 0 | 0.00 |
| 73 | 11/29 | 00:00 | 32 | 29 | 91 | 29.94 | WSW | 0 | 0.00 |